createdAt,value
2022-08-24T00:00:35.566Z,99.90
2022-08-24T00:03:40.973Z,99.90
2022-08-24T00:06:44.350Z,99.90
2022-08-24T00:09:50.594Z,99.90
2022-08-24T00:12:55.715Z,99.90
2022-08-24T00:15:58.988Z,99.90
2022-08-24T00:19:03.275Z,99.90
2022-08-24T00:22:07.366Z,99.90
2022-08-24T00:25:12.044Z,99.90
2022-08-24T00:28:16.901Z,99.90
2022-08-24T00:31:20.247Z,99.90
2022-08-24T00:34:23.656Z,99.90
2022-08-24T00:40:34.928Z,99.90
2022-08-24T00:43:39.634Z,99.90
2022-08-24T00:46:46.956Z,99.90
2022-08-24T00:49:57.738Z,99.90
2022-08-24T00:53:05.594Z,99.90
2022-08-24T00:56:14.168Z,99.90
2022-08-24T00:59:23.485Z,99.90
2022-08-24T01:02:32.403Z,99.90
2022-08-24T01:05:38.155Z,99.90
2022-08-24T01:11:46.091Z,99.90
2022-08-24T01:14:50.892Z,99.90
2022-08-24T01:18:23.055Z,99.90
2022-08-24T01:21:32.772Z,99.90
2022-08-24T01:24:39.029Z,99.90
2022-08-24T01:27:43.844Z,99.90
2022-08-24T01:30:48.083Z,99.90
2022-08-24T01:33:53.102Z,99.90
2022-08-24T01:36:58.098Z,99.90
2022-08-24T01:40:06.812Z,99.90
2022-08-24T01:43:10.429Z,99.90
2022-08-24T01:46:13.756Z,99.90
2022-08-24T01:49:17.869Z,99.90
2022-08-24T01:52:24.480Z,99.90
2022-08-24T01:58:34.035Z,99.90
2022-08-24T02:01:40.832Z,99.90
2022-08-24T02:04:44.427Z,99.90
2022-08-24T02:07:48.788Z,99.90
2022-08-24T02:10:56.365Z,99.90
2022-08-24T02:14:01.019Z,99.90
2022-08-24T02:17:05.727Z,99.90
2022-08-24T02:20:10.542Z,99.90
2022-08-24T02:23:14.560Z,99.90
2022-08-24T02:26:20.160Z,99.90
2022-08-24T02:29:23.789Z,99.90
2022-08-24T02:32:27.233Z,99.90
2022-08-24T02:35:31.369Z,99.90
2022-08-24T02:38:35.257Z,99.90
2022-08-24T02:41:41.931Z,99.90
2022-08-24T02:44:45.418Z,99.90
2022-08-24T02:47:49.364Z,99.90
2022-08-24T02:50:54.045Z,99.90
2022-08-24T02:53:59.316Z,99.90
2022-08-24T02:57:04.449Z,99.90
2022-08-24T03:00:11.635Z,99.90
2022-08-24T03:03:21.224Z,99.90
2022-08-24T03:06:24.580Z,99.90
2022-08-24T03:09:28.803Z,99.90
2022-08-24T03:12:35.734Z,99.90
2022-08-24T03:15:39.225Z,99.90
2022-08-24T03:18:42.665Z,99.90
2022-08-24T03:21:47.630Z,99.90
2022-08-24T03:24:50.893Z,99.90
2022-08-24T03:27:55.697Z,99.90
2022-08-24T03:30:59.177Z,99.90
2022-08-24T03:34:02.929Z,99.90
2022-08-24T03:37:06.478Z,99.90
2022-08-24T03:40:23.091Z,99.90
2022-08-24T03:46:57.384Z,99.90
2022-08-24T03:50:02.707Z,99.90
2022-08-24T03:53:08.603Z,99.90
2022-08-24T03:56:12.587Z,99.90
2022-08-24T03:59:20.100Z,99.90
2022-08-24T04:02:31.112Z,99.90
2022-08-24T04:05:36.064Z,99.90
2022-08-24T04:08:40.212Z,99.90
2022-08-24T04:11:46.041Z,99.90
2022-08-24T04:14:55.851Z,99.90
2022-08-24T04:18:00.514Z,99.90
2022-08-24T04:21:04.672Z,99.90
2022-08-24T04:24:10.429Z,99.90
2022-08-24T04:27:13.737Z,99.90
2022-08-24T04:30:18.542Z,99.90
2022-08-24T04:33:49.798Z,99.90
2022-08-24T04:36:57.899Z,99.90
2022-08-24T04:43:20.122Z,99.90
2022-08-24T05:06:34.030Z,99.90
2022-08-24T05:09:37.363Z,99.90
2022-08-24T05:15:49.666Z,99.90
2022-08-24T05:18:54.678Z,99.90
2022-08-24T05:21:58.635Z,99.90
2022-08-24T05:28:07.884Z,99.90
2022-08-24T05:31:13.801Z,99.90
2022-08-24T05:34:19.427Z,99.90
2022-08-24T05:49:55.112Z,99.90
2022-08-24T05:56:04.657Z,99.90
2022-08-24T05:59:19.780Z,99.90
2022-08-24T06:02:24.809Z,99.90
2022-08-24T06:05:28.360Z,99.90
2022-08-24T06:11:38.475Z,99.90
2022-08-24T06:14:47.611Z,99.90
2022-08-24T06:17:53.265Z,99.90
2022-08-24T06:24:02.488Z,99.90
2022-08-24T06:37:11.671Z,99.90
2022-08-24T06:40:15.328Z,99.90
2022-08-24T06:55:48.233Z,99.90
2022-08-24T07:05:04.369Z,99.90
2022-08-24T07:08:26.571Z,99.90
2022-08-24T07:11:30.238Z,99.90
2022-08-24T07:14:33.650Z,99.90
2022-08-24T07:17:39.953Z,99.90
2022-08-24T07:20:45.172Z,99.90
2022-08-24T07:23:57.352Z,99.90
2022-08-24T07:27:01.759Z,99.90
2022-08-24T07:30:25.807Z,99.90
2022-08-24T07:33:32.067Z,99.90
2022-08-24T07:36:38.047Z,99.90
2022-08-24T07:39:46.587Z,99.90
2022-08-24T07:42:50.778Z,99.90
2022-08-24T07:45:55.242Z,99.90
2022-08-24T07:49:11.334Z,99.90
2022-08-24T07:52:23.546Z,99.90
2022-08-24T07:55:27.718Z,99.90
2022-08-24T07:58:32.145Z,99.90
2022-08-24T08:01:35.569Z,99.90
2022-08-24T08:04:40.413Z,99.90
2022-08-24T08:07:45.695Z,99.90
2022-08-24T08:10:50.318Z,99.90
2022-08-24T08:13:54.416Z,99.90
2022-08-24T08:16:58.082Z,99.90
2022-08-24T08:20:03.003Z,99.90
2022-08-24T08:23:23.804Z,99.90
2022-08-24T08:26:50.543Z,99.90
2022-08-24T08:30:01.792Z,99.90
2022-08-24T08:33:06.013Z,99.90
2022-08-24T08:36:15.104Z,99.30
2022-08-24T08:39:26.892Z,99.90
2022-08-24T08:43:01.379Z,94.10
2022-08-24T08:46:21.040Z,95.50
2022-08-24T08:50:07.167Z,91.10
2022-08-24T08:53:45.471Z,94.90
2022-08-24T08:57:12.242Z,92.00
2022-08-24T09:00:23.708Z,95.10
2022-08-24T09:04:01.700Z,89.20
2022-08-24T09:07:28.722Z,96.80
2022-08-24T09:10:55.668Z,87.00
2022-08-24T09:14:28.374Z,86.10
2022-08-24T09:17:46.373Z,89.20
2022-08-24T09:21:15.221Z,91.20
2022-08-24T09:24:32.759Z,83.80
2022-08-24T09:28:14.510Z,73.50
2022-08-24T09:31:43.513Z,62.40
2022-08-24T09:34:57.146Z,67.20
2022-08-24T09:38:10.414Z,47.40
2022-08-24T09:41:51.763Z,27.60
2022-08-24T09:45:36.873Z,21.90
2022-08-24T09:49:05.894Z,26.00
2022-08-24T09:52:31.650Z,23.30
2022-08-24T09:56:06.010Z,1.00
2022-08-24T09:59:29.669Z,2.40
2022-08-24T10:02:48.996Z,1.00
2022-08-24T10:06:11.691Z,1.00
2022-08-24T10:09:56.118Z,1.40
2022-08-24T10:13:10.205Z,1.00
2022-08-24T10:16:29.025Z,1.00
2022-08-24T10:19:49.641Z,1.00
2022-08-24T10:23:28.960Z,1.00
2022-08-24T10:26:41.422Z,1.00
2022-08-24T10:30:11.250Z,1.00
2022-08-24T10:33:21.869Z,1.00
2022-08-24T10:37:09.705Z,1.00
2022-08-24T10:40:40.317Z,1.00
2022-08-24T10:44:18.381Z,1.00
2022-08-24T10:47:26.811Z,1.00
2022-08-24T10:50:41.942Z,1.00
2022-08-24T10:53:50.953Z,1.00
2022-08-24T10:57:02.809Z,1.00
2022-08-24T11:00:11.899Z,1.00
2022-08-24T11:03:27.956Z,1.00
2022-08-24T11:06:35.093Z,1.00
2022-08-24T11:09:47.907Z,1.00
2022-08-24T11:12:54.756Z,1.00
2022-08-24T11:16:03.075Z,1.00
2022-08-24T11:19:13.192Z,1.00
2022-08-24T11:22:43.101Z,1.00
2022-08-24T11:25:57.400Z,1.00
2022-08-24T11:29:10.583Z,1.00
2022-08-24T11:32:30.881Z,1.00
2022-08-24T11:35:43.433Z,1.00
2022-08-24T11:38:47.179Z,1.00
2022-08-24T11:41:57.332Z,1.00
2022-08-24T11:45:11.266Z,1.00
2022-08-24T11:48:29.674Z,1.00
2022-08-24T11:51:42.504Z,1.00
2022-08-24T11:54:51.301Z,1.00
2022-08-24T11:58:02.398Z,1.00
2022-08-24T12:01:18.757Z,1.00
2022-08-24T12:04:39.342Z,1.00
2022-08-24T12:07:54.530Z,1.00
2022-08-24T12:11:12.130Z,1.00
2022-08-24T12:14:23.063Z,1.00
2022-08-24T12:17:33.852Z,1.00
2022-08-24T12:20:42.206Z,1.00
2022-08-24T12:23:49.946Z,1.00
2022-08-24T12:26:58.120Z,1.00
2022-08-24T12:30:12.024Z,1.00
2022-08-24T12:33:20.332Z,1.00
2022-08-24T12:36:30.149Z,1.00
2022-08-24T12:39:39.279Z,1.00
2022-08-24T12:42:52.237Z,1.00
2022-08-24T12:45:59.981Z,1.00
2022-08-24T12:49:15.647Z,1.00
2022-08-24T12:52:36.558Z,1.00
2022-08-24T12:56:14.403Z,1.00
2022-08-24T12:59:23.707Z,1.00
2022-08-24T13:02:33.720Z,1.00
2022-08-24T13:05:45.098Z,1.00
2022-08-24T13:08:51.894Z,1.00
2022-08-24T13:11:56.915Z,1.00
2022-08-24T13:15:26.079Z,1.00
2022-08-24T13:18:50.575Z,1.00
2022-08-24T13:22:02.682Z,1.00
2022-08-24T13:25:42.638Z,1.00
2022-08-24T13:28:49.384Z,1.00
2022-08-24T13:32:00.972Z,1.00
2022-08-24T13:35:53.569Z,1.00
2022-08-24T13:39:13.587Z,1.00
2022-08-24T13:42:31.616Z,1.00
2022-08-24T13:45:42.719Z,1.00
2022-08-24T13:48:56.346Z,1.00
2022-08-24T13:52:15.104Z,1.00
2022-08-24T13:55:37.164Z,1.00
2022-08-24T13:58:46.292Z,1.00
2022-08-24T14:02:00.349Z,1.00
2022-08-24T14:05:10.595Z,1.00
2022-08-24T14:08:37.464Z,1.00
2022-08-24T14:12:00.171Z,1.00
2022-08-24T14:15:24.542Z,1.00
2022-08-24T14:18:35.840Z,1.00
2022-08-24T14:21:45.812Z,1.00
2022-08-24T14:24:56.971Z,1.00
2022-08-24T14:28:37.304Z,1.00
2022-08-24T14:31:41.189Z,1.00
2022-08-24T14:34:56.435Z,1.00
2022-08-24T14:38:26.436Z,1.00
2022-08-24T14:41:50.422Z,1.00
2022-08-24T14:45:05.334Z,1.00
2022-08-24T14:48:20.703Z,1.00
2022-08-24T14:51:44.976Z,1.00
2022-08-24T14:55:02.338Z,1.00
2022-08-24T14:58:29.097Z,1.00
2022-08-24T15:01:42.943Z,1.00
2022-08-24T15:04:53.919Z,1.00
2022-08-24T15:08:01.668Z,1.00
2022-08-24T15:11:09.971Z,1.00
2022-08-24T15:14:33.683Z,1.00
2022-08-24T15:17:59.375Z,1.00
2022-08-24T15:21:13.561Z,1.00
2022-08-24T15:24:31.388Z,1.00
2022-08-24T15:27:44.741Z,1.00
2022-08-24T15:30:56.858Z,1.00
2022-08-24T15:34:04.107Z,1.00
2022-08-24T15:37:07.742Z,1.00
2022-08-24T15:40:22.715Z,1.00
2022-08-24T15:43:28.216Z,1.00
2022-08-24T15:46:37.209Z,1.00
2022-08-24T15:49:49.406Z,1.00
2022-08-24T15:53:00.172Z,1.00
2022-08-24T15:56:27.892Z,1.00
2022-08-24T15:59:33.413Z,1.00
2022-08-24T16:02:39.090Z,5.10
2022-08-24T16:05:51.160Z,1.00
2022-08-24T16:09:00.588Z,11.90
2022-08-24T16:12:07.558Z,20.40
2022-08-24T16:15:17.154Z,17.70
2022-08-24T16:18:22.239Z,29.90
2022-08-24T16:21:34.427Z,25.50
2022-08-24T16:24:40.283Z,8.50
2022-08-24T16:28:02.534Z,17.90
2022-08-24T16:34:24.161Z,23.00
2022-08-24T16:37:29.534Z,49.30
2022-08-24T16:40:34.665Z,78.50
2022-08-24T16:43:40.576Z,65.80
2022-08-24T16:46:47.307Z,53.70
2022-08-24T16:49:52.753Z,70.60
2022-08-24T16:52:58.324Z,73.00
2022-08-24T16:56:04.675Z,72.20
2022-08-24T16:59:08.529Z,91.70
2022-08-24T17:02:13.005Z,85.10
2022-08-24T17:08:23.165Z,91.50
2022-08-24T17:14:31.792Z,77.70
2022-08-24T17:17:35.879Z,58.30
2022-08-24T17:20:39.886Z,51.60
2022-08-24T17:23:46.329Z,50.80
2022-08-24T17:26:51.021Z,59.90
2022-08-24T17:29:54.860Z,82.80
2022-08-24T17:36:05.426Z,94.70
2022-08-24T17:39:13.642Z,92.30
2022-08-24T17:42:46.909Z,99.90
2022-08-24T17:45:42.666Z,99.90
2022-08-24T17:48:47.487Z,99.90
2022-08-24T17:54:56.303Z,99.90
2022-08-24T18:01:03.647Z,99.90
2022-08-24T18:04:07.187Z,99.90
2022-08-24T18:07:19.031Z,99.90
2022-08-24T18:10:33.800Z,99.90
2022-08-24T18:13:37.160Z,99.90
2022-08-24T18:16:40.873Z,99.90
2022-08-24T18:19:45.533Z,99.90
2022-08-24T18:25:59.632Z,99.90
2022-08-24T18:29:10.017Z,99.90
2022-08-24T18:32:31.742Z,99.90
2022-08-24T18:35:37.390Z,99.90
2022-08-24T18:38:41.942Z,99.90
2022-08-24T18:41:49.670Z,99.90
2022-08-24T18:44:54.279Z,99.90
2022-08-24T18:47:57.562Z,99.90
2022-08-24T18:51:02.689Z,99.90
2022-08-24T18:54:09.102Z,99.90
2022-08-24T18:57:14.152Z,99.90
2022-08-24T19:00:18.261Z,99.90
2022-08-24T19:03:24.750Z,99.90
2022-08-24T19:06:30.484Z,99.90
2022-08-24T19:09:34.598Z,99.90
2022-08-24T19:12:46.823Z,99.90
2022-08-24T19:15:51.880Z,99.90
2022-08-24T19:18:55.982Z,99.90
2022-08-24T19:22:00.396Z,99.90
2022-08-24T19:25:05.250Z,99.90
2022-08-24T19:28:10.911Z,99.90
2022-08-24T19:31:15.440Z,99.90
2022-08-24T19:34:18.859Z,99.90
2022-08-24T19:37:24.345Z,99.90
2022-08-24T19:40:27.892Z,99.90
2022-08-24T19:43:34.947Z,99.90
2022-08-24T19:46:38.536Z,99.90
2022-08-24T19:49:42.275Z,99.90
2022-08-24T19:52:46.622Z,99.90
2022-08-24T19:55:50.571Z,99.90
2022-08-24T19:59:01.770Z,99.90
2022-08-24T20:02:05.701Z,99.90
2022-08-24T20:05:09.463Z,99.90
2022-08-24T20:08:13.013Z,99.90
2022-08-24T20:11:16.994Z,99.90
2022-08-24T20:14:23.422Z,99.90
2022-08-24T20:17:27.095Z,99.90
2022-08-24T20:20:32.878Z,99.90
2022-08-24T20:23:36.484Z,99.90
2022-08-24T20:26:43.575Z,99.90
2022-08-24T20:29:48.719Z,99.90
2022-08-24T20:32:53.088Z,99.90
2022-08-24T20:35:58.243Z,99.90
2022-08-24T20:39:03.196Z,99.90
2022-08-24T20:42:13.952Z,99.90
2022-08-24T20:45:20.767Z,99.90
2022-08-24T20:48:28.245Z,99.90
2022-08-24T20:51:31.714Z,99.90
2022-08-24T20:54:40.124Z,99.90
2022-08-24T20:57:48.733Z,99.90
2022-08-24T21:00:53.684Z,99.90
2022-08-24T21:04:01.501Z,99.90
2022-08-24T21:07:11.526Z,99.90
2022-08-24T21:10:15.665Z,99.90
2022-08-24T21:13:19.254Z,99.90
2022-08-24T21:19:27.936Z,99.90
2022-08-24T21:22:31.399Z,99.90
2022-08-24T21:25:34.876Z,99.90
2022-08-24T21:28:40.756Z,99.90
2022-08-24T21:32:06.379Z,99.90
2022-08-24T21:35:08.871Z,99.90
2022-08-24T21:38:19.785Z,99.90
2022-08-24T21:41:24.678Z,99.90
2022-08-24T21:44:28.315Z,99.90
2022-08-24T21:47:33.249Z,99.90
2022-08-24T21:50:36.709Z,99.90
2022-08-24T21:53:39.982Z,99.90
2022-08-24T21:56:43.298Z,99.90
2022-08-24T21:59:46.761Z,99.90
2022-08-24T22:02:54.075Z,99.90
2022-08-24T22:05:57.427Z,99.90
2022-08-24T22:09:01.712Z,99.90
2022-08-24T22:12:05.761Z,99.90
2022-08-24T22:15:13.216Z,99.90
2022-08-24T22:18:18.307Z,99.90
2022-08-24T22:21:24.447Z,99.90
2022-08-24T22:24:27.792Z,99.90
2022-08-24T22:27:31.199Z,99.90
2022-08-24T22:30:36.156Z,99.90
2022-08-24T22:33:40.833Z,99.90
2022-08-24T22:36:45.282Z,99.90
2022-08-24T22:39:48.925Z,99.90
2022-08-24T22:42:52.254Z,99.90
2022-08-24T22:45:55.643Z,99.90
2022-08-24T22:49:01.164Z,99.90
2022-08-24T22:52:05.339Z,99.90
2022-08-24T22:55:09.952Z,99.90
2022-08-24T22:58:13.517Z,99.90
2022-08-24T23:04:29.183Z,99.90
2022-08-24T23:07:32.724Z,99.90
2022-08-24T23:10:36.136Z,99.90
2022-08-24T23:13:40.077Z,99.90
2022-08-24T23:16:47.699Z,99.90
2022-08-24T23:20:04.897Z,99.90
2022-08-24T23:23:08.200Z,99.90
2022-08-24T23:26:18.137Z,99.90
2022-08-24T23:29:21.705Z,99.90
2022-08-24T23:32:25.125Z,99.90
2022-08-24T23:35:29.965Z,99.90
2022-08-24T23:38:33.385Z,99.90
2022-08-24T23:41:39.583Z,99.90
2022-08-24T23:44:46.124Z,99.90
2022-08-24T23:47:49.386Z,99.90
2022-08-24T23:50:54.052Z,99.90
2022-08-24T23:53:57.359Z,99.90
2022-08-24T23:57:00.603Z,99.90
